メインページ
METAR-TAF:

METAR-TAF

空港 :

ポートオブスペイン, Trinidad, トリニダード・トバゴ

緯度: 10-37N, 経度: 061-21W, 海抜: 12m

現時点の気象観測

当レポートは32分前の15:00(UTC)に作成
の風 7kt
気温 28°C
湿度 84%
気圧 1015 hPa
視程: 9000m
高度800ftの雲はほとんどない
高度1500ftの雲は散在している
近辺でにわか雨

METAR: TTPP 251500Z 09007KT 9000 VCSH FEW008 SCT015 28/25 Q1015 NOSIG RMK VCSH N/ NE/ S

時間: 11:32 (15:32 UTC)

予報

当レポートは5時間32分前の10:00(UTC)に作成
予報は25日の 12時(UTC)から 26日の 12時(UTC)まで有効
の風 10kt
視程: 7000m
高度1800ftの雲は散在している
高度3500ftの雲は散在している
近辺でにわか雨
25日の 12時(UTC)から 25日の 18時(UTC)まで一時的に
視程: 2000m
高度1200ftの雲はほとんどない, 積乱雲.
高度1600ftの千切れ雲あり
にわか雨, 近辺でにわか雨
26日の 00時(UTC)から 26日の 02時(UTC)まで徐々に
の風 5kt
視程10km以上
高度1800ftの雲は散在している

TAF: TTPP 251000Z 2512/2612 10010KT 7000 VCSH SCT018 SCT035 TEMPO 2512/2518 2000 SHRA VCSH FEW012CB BKN016 BECMG 2600/2602 08005KT 9999 SCT018

4,000以上の空港の気象観測と天気予報(METAR報とTAF報)

利用可能な観測所は地図上に黄色い丸と赤い丸で示す。

丸の上にカーソルを重ねると観測所名を参照できる。

次にクリックすると気象観測と天気予報を参照できる。

マップの切り替え:黒色「×」印の緑ボタンをクリックして拡大、「-」印の緑ボタンをクリックして縮小、緑色の三角印をクリックして隣りの地図に切り替え


METAR-TAF: